createdAt,value
2024-04-24T00:01:26.586Z,12.14
2024-04-24T00:03:53.508Z,12.63
2024-04-24T00:06:20.455Z,12.17
2024-04-24T00:08:47.267Z,12.58
2024-04-24T00:11:19.799Z,12.52
2024-04-24T00:13:46.762Z,12.61
2024-04-24T00:16:13.577Z,12.53
2024-04-24T00:18:42.371Z,12.60
2024-04-24T00:21:11.643Z,12.59
2024-04-24T00:23:38.476Z,12.55
2024-04-24T00:26:05.390Z,12.68
2024-04-24T00:28:32.251Z,12.17
2024-04-24T00:31:07.184Z,12.50
2024-04-24T00:33:34.128Z,12.47
2024-04-24T00:36:01.022Z,12.46
2024-04-24T00:38:28.024Z,12.44
2024-04-24T00:40:54.875Z,12.40
2024-04-24T00:43:21.693Z,12.34
2024-04-24T00:45:48.527Z,12.16
2024-04-24T00:48:16.428Z,12.25
2024-04-24T00:50:44.309Z,11.93
2024-04-24T00:53:11.236Z,12.05
2024-04-24T00:55:38.172Z,12.33
2024-04-24T00:58:06.117Z,12.25
2024-04-24T01:00:33.359Z,12.26
2024-04-24T01:03:01.225Z,12.07
2024-04-24T01:05:28.126Z,12.32
2024-04-24T01:07:55.088Z,12.30
2024-04-24T01:10:22.023Z,12.31
2024-04-24T01:12:49.939Z,12.37
2024-04-24T01:15:19.604Z,12.36
2024-04-24T01:17:50.495Z,11.93
2024-04-24T01:20:21.779Z,11.81
2024-04-24T01:23:07.695Z,12.33
2024-04-24T01:25:49.098Z,11.95
2024-04-24T01:28:16.224Z,11.98
2024-04-24T01:30:43.027Z,11.90
2024-04-24T01:33:09.926Z,12.23
2024-04-24T01:35:36.908Z,12.12
2024-04-24T01:38:04.008Z,11.83
2024-04-24T01:40:30.870Z,11.71
2024-04-24T01:42:57.708Z,12.09
2024-04-24T01:45:24.605Z,12.14
2024-04-24T01:47:51.672Z,11.87
2024-04-24T01:50:18.567Z,12.03
2024-04-24T01:52:45.461Z,11.49
2024-04-24T01:55:12.412Z,11.73
2024-04-24T01:57:39.213Z,11.97
2024-04-24T02:00:06.631Z,12.04
2024-04-24T02:02:33.575Z,11.89
2024-04-24T02:05:00.474Z,11.90
2024-04-24T02:07:27.353Z,11.74
2024-04-24T02:09:54.205Z,11.41
2024-04-24T02:12:21.212Z,11.66
2024-04-24T02:14:48.103Z,11.19
2024-04-24T02:17:15.016Z,11.47
2024-04-24T02:19:43.456Z,11.10
2024-04-24T02:22:10.825Z,11.21
2024-04-24T02:24:56.410Z,11.51
2024-04-24T02:27:23.248Z,11.49
2024-04-24T02:29:55.991Z,11.48
2024-04-24T02:32:24.031Z,11.46
2024-04-24T02:34:51.144Z,11.48
2024-04-24T02:37:18.036Z,11.46
2024-04-24T02:39:44.943Z,11.39
2024-04-24T02:42:11.882Z,11.33
2024-04-24T02:44:38.705Z,10.95
2024-04-24T02:47:05.663Z,11.02
2024-04-24T02:49:32.492Z,11.10
2024-04-24T02:51:59.327Z,11.01
2024-04-24T02:54:26.153Z,11.22
2024-04-24T02:56:53.648Z,11.24
2024-04-24T02:59:21.106Z,11.18
2024-04-24T03:01:48.193Z,11.21
2024-04-24T03:04:15.129Z,11.22
2024-04-24T03:06:45.634Z,11.23
2024-04-24T03:09:13.037Z,11.15
2024-04-24T03:11:40.747Z,11.16
2024-04-24T03:14:08.288Z,11.15
2024-04-24T03:16:35.595Z,11.13
2024-04-24T03:19:02.611Z,10.99
2024-04-24T03:21:29.544Z,11.09
2024-04-24T03:23:56.494Z,11.19
2024-04-24T03:26:23.462Z,11.22
2024-04-24T03:28:50.308Z,11.01
2024-04-24T03:31:17.171Z,11.41
2024-04-24T03:33:44.081Z,11.38
2024-04-24T03:36:10.937Z,11.42
2024-04-24T03:38:37.733Z,11.02
2024-04-24T03:41:04.765Z,11.46
2024-04-24T03:43:31.968Z,11.45
2024-04-24T03:45:58.843Z,11.56
2024-04-24T03:48:25.961Z,11.52
2024-04-24T03:50:52.869Z,11.59
2024-04-24T03:53:19.872Z,11.75
2024-04-24T03:55:46.782Z,11.68
2024-04-24T03:58:13.650Z,11.64
2024-04-24T04:00:40.601Z,11.69
2024-04-24T04:03:10.719Z,11.53
2024-04-24T04:05:38.188Z,11.28
2024-04-24T04:08:05.484Z,11.53
2024-04-24T04:10:32.315Z,10.87
2024-04-24T04:12:59.253Z,10.97
2024-04-24T04:15:26.153Z,11.48
2024-04-24T04:17:53.286Z,11.49
2024-04-24T04:20:20.368Z,11.43
2024-04-24T04:22:47.409Z,11.59
2024-04-24T04:25:14.404Z,11.64
2024-04-24T04:27:41.405Z,11.41
2024-04-24T04:30:08.819Z,11.71
2024-04-24T04:32:35.798Z,11.82
2024-04-24T04:35:02.795Z,11.91
2024-04-24T04:37:29.742Z,11.93
2024-04-24T04:39:56.544Z,11.72
2024-04-24T04:42:23.351Z,12.08
2024-04-24T04:44:50.185Z,12.26
2024-04-24T04:47:17.141Z,11.72
2024-04-24T04:49:43.999Z,12.41
2024-04-24T04:52:10.821Z,12.63
2024-04-24T04:54:37.610Z,12.84
2024-04-24T04:57:04.465Z,12.93
2024-04-24T04:59:31.304Z,13.11
2024-04-24T05:01:59.702Z,13.23
2024-04-24T05:04:26.982Z,12.92
2024-04-24T05:06:53.871Z,13.39
2024-04-24T05:09:20.733Z,13.24
2024-04-24T05:11:50.376Z,13.36
2024-04-24T05:14:17.478Z,13.44
2024-04-24T05:16:44.509Z,13.36
2024-04-24T05:19:11.391Z,13.30
2024-04-24T05:21:38.223Z,13.64
2024-04-24T05:24:05.468Z,13.78
2024-04-24T05:26:50.741Z,14.08
2024-04-24T05:29:17.562Z,14.06
2024-04-24T05:31:44.449Z,13.94
2024-04-24T05:34:11.340Z,14.19
2024-04-24T05:36:38.206Z,14.28
2024-04-24T05:39:05.026Z,12.48
2024-04-24T05:41:31.852Z,14.34
2024-04-24T05:43:58.768Z,14.42
2024-04-24T05:46:25.603Z,14.77
2024-04-24T05:48:52.618Z,14.71
2024-04-24T05:51:19.515Z,14.81
2024-04-24T05:53:46.403Z,15.09
2024-04-24T05:56:13.361Z,15.28
2024-04-24T05:58:40.211Z,15.55
2024-04-24T06:01:07.044Z,15.67
2024-04-24T06:03:33.872Z,15.70
2024-04-24T06:06:00.688Z,15.78
2024-04-24T06:08:27.545Z,14.08
2024-04-24T06:10:54.507Z,15.87
2024-04-24T06:13:21.600Z,15.98
2024-04-24T06:15:48.438Z,16.18
2024-04-24T06:18:15.375Z,16.19
2024-04-24T06:20:42.259Z,16.14
2024-04-24T06:23:09.194Z,16.05
2024-04-24T06:25:36.338Z,16.15
2024-04-24T06:28:03.230Z,15.86
2024-04-24T06:30:30.203Z,16.12
2024-04-24T06:32:57.228Z,15.91
2024-04-24T06:35:27.166Z,16.13
2024-04-24T06:37:55.105Z,15.57
2024-04-24T06:40:22.047Z,15.53
2024-04-24T06:42:52.102Z,15.79
2024-04-24T06:45:19.233Z,15.42
2024-04-24T06:47:46.094Z,15.91
2024-04-24T06:50:13.069Z,15.87
2024-04-24T06:52:39.987Z,16.08
2024-04-24T06:55:07.032Z,15.93
2024-04-24T06:57:33.848Z,16.24
2024-04-24T07:00:00.695Z,16.25
2024-04-24T07:02:27.551Z,16.60
2024-04-24T07:04:54.406Z,16.65
2024-04-24T07:07:23.050Z,16.61
2024-04-24T07:09:50.496Z,16.58
2024-04-24T07:12:17.402Z,16.63
2024-04-24T07:14:44.245Z,16.63
2024-04-24T07:17:11.144Z,16.80
2024-04-24T07:19:38.090Z,16.91
2024-04-24T07:22:05.539Z,16.91
2024-04-24T07:24:32.413Z,16.93
2024-04-24T07:26:59.235Z,17.31
2024-04-24T07:29:26.513Z,17.43
2024-04-24T07:31:53.432Z,17.56
2024-04-24T07:34:20.490Z,17.52
2024-04-24T07:36:47.353Z,16.95
2024-04-24T07:39:14.142Z,17.51
2024-04-24T07:41:43.588Z,17.78
2024-04-24T07:44:10.888Z,18.04
2024-04-24T07:46:37.876Z,18.23
2024-04-24T07:49:04.760Z,18.18
2024-04-24T07:51:31.713Z,18.31
2024-04-24T07:53:58.586Z,18.42
2024-04-24T07:56:25.638Z,18.37
2024-04-24T07:58:52.715Z,18.35
2024-04-24T08:01:23.482Z,18.42
2024-04-24T08:03:50.450Z,18.36
2024-04-24T08:06:17.468Z,18.49
2024-04-24T08:08:44.400Z,18.91
2024-04-24T08:11:11.554Z,19.07
2024-04-24T08:13:38.509Z,17.51
2024-04-24T08:16:05.629Z,19.31
2024-04-24T08:18:34.185Z,19.39
2024-04-24T08:21:02.430Z,19.23
2024-04-24T08:23:29.340Z,18.87
2024-04-24T08:25:56.566Z,19.29
2024-04-24T08:28:33.237Z,18.43
2024-04-24T08:31:07.240Z,19.93
2024-04-24T08:33:35.100Z,18.89
2024-04-24T08:36:13.608Z,19.63
2024-04-24T08:38:41.264Z,19.98
2024-04-24T08:41:12.428Z,20.35
2024-04-24T08:43:44.099Z,20.07
2024-04-24T08:46:12.222Z,20.53
2024-04-24T08:48:44.129Z,20.58
2024-04-24T08:51:12.354Z,20.74
2024-04-24T08:54:05.884Z,20.66
2024-04-24T08:56:38.727Z,20.73
2024-04-24T08:59:12.872Z,20.77
2024-04-24T09:01:44.773Z,20.60
2024-04-24T09:04:14.363Z,20.79
2024-04-24T09:06:41.827Z,20.65
2024-04-24T09:09:09.097Z,20.73
2024-04-24T09:11:36.069Z,20.99
2024-04-24T09:14:04.212Z,20.47
2024-04-24T09:16:35.727Z,20.93
2024-04-24T09:19:04.489Z,21.02
2024-04-24T09:21:34.884Z,21.07
2024-04-24T09:24:01.758Z,20.75
2024-04-24T09:26:29.195Z,21.01
2024-04-24T09:28:56.248Z,21.35
2024-04-24T09:31:23.791Z,21.75
2024-04-24T09:33:51.388Z,22.27
2024-04-24T09:36:18.434Z,22.64
2024-04-24T09:38:46.489Z,22.65
2024-04-24T09:41:13.787Z,23.04
2024-04-24T09:43:40.826Z,22.84
2024-04-24T09:46:07.773Z,21.76
2024-04-24T09:48:35.599Z,21.99
2024-04-24T09:51:02.601Z,22.01
2024-04-24T09:53:29.616Z,21.96
2024-04-24T09:56:17.360Z,22.07
2024-04-24T09:58:44.939Z,22.06
2024-04-24T10:01:13.990Z,22.17
2024-04-24T10:03:42.274Z,23.18
2024-04-24T10:06:12.609Z,22.69
2024-04-24T10:08:41.539Z,23.28
2024-04-24T10:11:12.106Z,22.99
2024-04-24T10:13:41.869Z,23.20
2024-04-24T10:16:09.515Z,23.21
2024-04-24T10:18:37.190Z,23.56
2024-04-24T10:21:05.661Z,23.38
2024-04-24T10:23:33.278Z,23.12
2024-04-24T10:26:01.122Z,23.32
2024-04-24T10:28:28.870Z,22.68
2024-04-24T10:30:58.262Z,22.71
2024-04-24T10:33:26.908Z,22.47
2024-04-24T10:35:54.372Z,22.91
2024-04-24T10:38:21.240Z,23.07
2024-04-24T10:40:52.980Z,23.34
2024-04-24T10:43:22.665Z,23.00
2024-04-24T10:45:54.193Z,23.47
2024-04-24T10:48:21.208Z,23.69
2024-04-24T10:50:54.684Z,23.79
2024-04-24T10:53:24.616Z,24.20
2024-04-24T10:55:59.703Z,24.59
2024-04-24T10:58:26.710Z,24.68
2024-04-24T11:00:53.583Z,24.69
2024-04-24T11:03:25.599Z,25.20
2024-04-24T11:05:52.980Z,24.62
2024-04-24T11:08:21.167Z,24.61
2024-04-24T11:10:54.843Z,25.07
2024-04-24T11:13:21.905Z,24.57
2024-04-24T11:15:58.147Z,25.18
2024-04-24T11:18:29.536Z,25.88
2024-04-24T11:20:57.449Z,25.62
2024-04-24T11:23:24.419Z,25.94
2024-04-24T11:25:58.562Z,25.44
2024-04-24T11:28:28.112Z,25.80
2024-04-24T11:30:55.312Z,25.68
2024-04-24T11:33:24.114Z,25.62
2024-04-24T11:35:53.093Z,25.18
2024-04-24T11:38:20.794Z,25.22
2024-04-24T11:40:48.099Z,24.73
2024-04-24T11:43:15.964Z,24.80
2024-04-24T11:45:42.935Z,25.17
2024-04-24T11:48:10.331Z,24.79
2024-04-24T11:50:37.629Z,24.98
2024-04-24T11:53:04.913Z,25.49
2024-04-24T11:55:35.478Z,25.16
2024-04-24T11:58:09.751Z,25.80
2024-04-24T12:00:40.441Z,25.44
2024-04-24T12:03:07.811Z,25.14
2024-04-24T12:05:34.863Z,21.81
2024-04-24T12:08:01.717Z,25.02
2024-04-24T12:10:28.650Z,25.52
2024-04-24T12:12:55.690Z,25.39
2024-04-24T12:15:22.697Z,25.52
2024-04-24T12:17:49.800Z,25.57
2024-04-24T12:20:16.715Z,25.94
2024-04-24T12:22:43.675Z,25.80
2024-04-24T12:25:10.618Z,26.00
2024-04-24T12:27:37.566Z,26.38
2024-04-24T12:30:06.007Z,26.58
2024-04-24T12:32:34.276Z,25.02
2024-04-24T12:35:01.336Z,26.02
2024-04-24T12:37:32.411Z,26.11
2024-04-24T12:39:59.308Z,26.27
2024-04-24T12:42:26.117Z,25.05
2024-04-24T12:44:52.959Z,24.72
2024-04-24T12:47:19.911Z,25.42
2024-04-24T12:49:46.872Z,24.30
2024-04-24T12:52:13.714Z,25.18
2024-04-24T12:54:40.540Z,25.25
2024-04-24T12:57:07.547Z,25.16
2024-04-24T12:59:34.432Z,24.85
2024-04-24T13:02:01.390Z,24.79
2024-04-24T13:04:28.423Z,24.87
2024-04-24T13:06:55.327Z,25.12
2024-04-24T13:09:24.580Z,25.18
2024-04-24T13:11:51.842Z,25.28
2024-04-24T13:14:18.780Z,24.79
2024-04-24T13:16:47.278Z,24.70
2024-04-24T13:19:14.278Z,24.61
2024-04-24T13:21:41.215Z,25.57
2024-04-24T13:24:09.009Z,25.02
2024-04-24T13:26:36.149Z,25.40
2024-04-24T13:29:03.278Z,24.75
2024-04-24T13:31:30.254Z,25.27
2024-04-24T13:33:57.256Z,24.81
2024-04-24T13:36:24.181Z,24.62
2024-04-24T13:38:53.662Z,26.03
2024-04-24T13:41:23.822Z,27.47
2024-04-24T13:43:53.588Z,28.40
2024-04-24T13:46:20.480Z,29.12
2024-04-24T13:48:48.073Z,28.85
2024-04-24T13:51:15.022Z,27.49
2024-04-24T13:53:41.847Z,27.41
2024-04-24T13:56:09.075Z,27.07
2024-04-24T13:58:38.091Z,26.31
2024-04-24T14:01:05.238Z,26.25
2024-04-24T14:03:32.409Z,25.76
2024-04-24T14:06:01.273Z,25.35
2024-04-24T14:08:28.384Z,25.32
2024-04-24T14:10:55.418Z,25.10
2024-04-24T14:13:22.373Z,25.77
2024-04-24T14:15:49.158Z,25.63
2024-04-24T14:18:16.040Z,25.76
2024-04-24T14:20:42.899Z,25.58
2024-04-24T14:23:09.875Z,25.59
2024-04-24T14:25:36.702Z,25.48
2024-04-24T14:28:03.764Z,25.98
2024-04-24T14:30:30.676Z,25.55
2024-04-24T14:32:57.738Z,25.70
2024-04-24T14:35:25.401Z,25.49
2024-04-24T14:37:52.470Z,25.58
2024-04-24T14:40:19.462Z,25.57
2024-04-24T14:42:46.756Z,25.77
2024-04-24T14:45:14.561Z,26.56
2024-04-24T14:47:41.677Z,27.22
2024-04-24T14:50:09.173Z,27.35
2024-04-24T14:52:36.088Z,27.04
2024-04-24T14:55:02.980Z,27.06
2024-04-24T14:57:29.925Z,27.23
2024-04-24T14:59:56.791Z,26.84
2024-04-24T15:02:25.340Z,27.18
2024-04-24T15:04:52.390Z,27.31
2024-04-24T15:07:19.572Z,27.46
2024-04-24T15:09:46.446Z,27.27
2024-04-24T15:12:15.184Z,26.24
2024-04-24T15:14:42.278Z,25.74
2024-04-24T15:17:09.289Z,25.17
2024-04-24T15:19:36.873Z,24.79
2024-04-24T15:22:04.430Z,25.02
2024-04-24T15:24:31.237Z,24.78
2024-04-24T15:26:58.102Z,24.29
2024-04-24T15:29:25.010Z,23.95
2024-04-24T15:31:51.900Z,23.58
2024-04-24T15:34:18.743Z,23.36
2024-04-24T15:36:47.045Z,22.84
2024-04-24T15:39:13.911Z,22.92
2024-04-24T15:41:42.522Z,22.99
2024-04-24T15:44:09.435Z,22.61
2024-04-24T15:46:36.308Z,22.51
2024-04-24T15:49:03.147Z,22.38
2024-04-24T15:51:29.967Z,22.46
2024-04-24T15:53:56.838Z,22.38
2024-04-24T15:56:23.756Z,22.25
2024-04-24T15:58:50.645Z,22.29
2024-04-24T16:01:17.522Z,22.29
2024-04-24T16:03:44.411Z,21.79
2024-04-24T16:06:11.321Z,22.01
2024-04-24T16:08:38.694Z,22.04
2024-04-24T16:11:05.699Z,22.00
2024-04-24T16:13:32.695Z,21.98
2024-04-24T16:15:59.543Z,22.04
2024-04-24T16:18:32.876Z,21.77
2024-04-24T16:21:03.426Z,21.64
2024-04-24T16:23:30.419Z,21.87
2024-04-24T16:25:57.333Z,21.73
2024-04-24T16:28:24.481Z,21.14
2024-04-24T16:30:51.334Z,21.16
2024-04-24T16:33:18.240Z,21.57
2024-04-24T16:35:45.103Z,21.41
2024-04-24T16:38:11.983Z,21.41
2024-04-24T16:40:40.699Z,21.24
2024-04-24T16:43:07.530Z,21.09
2024-04-24T16:45:34.703Z,20.72
2024-04-24T16:48:01.768Z,20.86
2024-04-24T16:50:29.035Z,20.75
2024-04-24T16:52:55.915Z,20.72
2024-04-24T16:55:23.027Z,20.66
2024-04-24T16:57:49.898Z,20.66
2024-04-24T17:00:16.959Z,20.38
2024-04-24T17:02:43.976Z,20.06
2024-04-24T17:05:11.400Z,20.22
2024-04-24T17:07:38.307Z,20.11
2024-04-24T17:10:05.566Z,20.10
2024-04-24T17:12:32.513Z,19.98
2024-04-24T17:14:59.727Z,19.74
2024-04-24T17:17:26.718Z,19.67
2024-04-24T17:19:53.659Z,19.63
2024-04-24T17:22:20.512Z,19.90
2024-04-24T17:24:47.722Z,19.90
2024-04-24T17:27:15.970Z,19.58
2024-04-24T17:29:42.861Z,19.62
2024-04-24T17:32:10.698Z,19.88
2024-04-24T17:34:37.671Z,19.64
2024-04-24T17:37:04.603Z,19.82
2024-04-24T17:39:31.504Z,19.85
2024-04-24T17:42:00.432Z,19.82
2024-04-24T17:44:27.700Z,19.80
2024-04-24T17:46:54.502Z,19.79
2024-04-24T17:49:21.345Z,19.82
2024-04-24T17:51:48.221Z,19.72
2024-04-24T17:54:18.066Z,19.72
2024-04-24T17:56:45.052Z,19.39
2024-04-24T17:59:12.073Z,19.70
2024-04-24T18:01:38.961Z,19.54
2024-04-24T18:04:05.887Z,19.54
2024-04-24T18:06:32.976Z,19.55
2024-04-24T18:08:59.930Z,19.42
2024-04-24T18:11:26.946Z,19.44
2024-04-24T18:13:53.943Z,19.41
2024-04-24T18:16:20.926Z,19.07
2024-04-24T18:18:47.859Z,19.38
2024-04-24T18:21:14.711Z,19.12
2024-04-24T18:23:41.626Z,19.13
2024-04-24T18:26:09.522Z,19.36
2024-04-24T18:28:36.551Z,19.32
2024-04-24T18:31:03.757Z,19.27
2024-04-24T18:33:30.747Z,19.12
2024-04-24T18:35:57.830Z,19.06
2024-04-24T18:38:24.939Z,19.05
2024-04-24T18:40:51.924Z,19.10
2024-04-24T18:43:19.011Z,18.94
2024-04-24T18:45:46.909Z,18.90
2024-04-24T18:48:13.969Z,18.93
2024-04-24T18:50:41.462Z,18.95
2024-04-24T18:53:08.597Z,18.76
2024-04-24T18:55:35.663Z,18.49
2024-04-24T18:58:02.763Z,18.32
2024-04-24T19:00:30.652Z,18.03
2024-04-24T19:02:57.979Z,18.10
2024-04-24T19:05:25.165Z,18.12
2024-04-24T19:07:52.221Z,18.04
2024-04-24T19:10:20.167Z,18.09
2024-04-24T19:12:47.200Z,18.06
2024-04-24T19:15:14.466Z,17.96
2024-04-24T19:17:44.486Z,18.01
2024-04-24T19:20:11.672Z,17.66
2024-04-24T19:22:39.806Z,18.00
2024-04-24T19:25:06.941Z,17.96
2024-04-24T19:27:40.706Z,17.94
2024-04-24T19:30:12.238Z,17.99
2024-04-24T19:32:40.950Z,17.90
2024-04-24T19:35:08.875Z,18.00
2024-04-24T19:37:36.251Z,17.95
2024-04-24T19:40:04.666Z,17.95
2024-04-24T19:42:31.863Z,17.77
2024-04-24T19:44:59.979Z,17.52
2024-04-24T19:47:27.389Z,17.57
2024-04-24T19:49:54.570Z,17.80
2024-04-24T19:52:21.702Z,17.74
2024-04-24T19:54:48.805Z,17.65
2024-04-24T19:57:16.228Z,17.63
2024-04-24T19:59:46.497Z,17.62
2024-04-24T20:02:16.982Z,17.09
2024-04-24T20:04:45.926Z,17.52
2024-04-24T20:07:14.777Z,17.54
2024-04-24T20:09:41.667Z,16.95
2024-04-24T20:12:08.988Z,16.90
2024-04-24T20:14:35.958Z,17.26
2024-04-24T20:17:03.028Z,17.23
2024-04-24T20:19:33.403Z,17.20
2024-04-24T20:22:01.211Z,17.15
2024-04-24T20:24:28.296Z,16.81
2024-04-24T20:26:55.248Z,17.06
2024-04-24T20:29:22.331Z,16.73
2024-04-24T20:31:49.324Z,16.81
2024-04-24T20:34:17.666Z,16.83
2024-04-24T20:36:44.563Z,16.88
2024-04-24T20:39:11.673Z,16.85
2024-04-24T20:41:42.623Z,16.86
2024-04-24T20:44:09.916Z,17.01
2024-04-24T20:46:41.998Z,17.07
2024-04-24T20:49:12.074Z,17.00
2024-04-24T20:51:42.476Z,16.68
2024-04-24T20:54:10.255Z,16.61
2024-04-24T20:56:37.766Z,16.93
2024-04-24T20:59:07.401Z,16.95
2024-04-24T21:01:34.318Z,16.94
2024-04-24T21:04:01.208Z,17.11
2024-04-24T21:06:28.755Z,16.83
2024-04-24T21:08:55.687Z,16.91
2024-04-24T21:11:26.191Z,17.25
2024-04-24T21:13:53.950Z,17.30
2024-04-24T21:16:20.923Z,17.32
2024-04-24T21:18:47.972Z,17.19
2024-04-24T21:21:15.044Z,16.66
2024-04-24T21:23:42.769Z,17.15
2024-04-24T21:26:09.659Z,17.29
2024-04-24T21:28:36.711Z,16.91
2024-04-24T21:31:04.874Z,17.30
2024-04-24T21:33:32.624Z,17.33
2024-04-24T21:35:59.724Z,16.84
2024-04-24T21:38:36.532Z,17.31
2024-04-24T21:41:08.025Z,17.35
2024-04-24T21:43:35.157Z,17.18
2024-04-24T21:46:07.614Z,17.06
2024-04-24T21:48:34.574Z,17.11
2024-04-24T21:51:01.631Z,17.11
2024-04-24T21:53:28.770Z,17.14
2024-04-24T21:55:58.432Z,17.05
2024-04-24T21:58:25.609Z,17.06
2024-04-24T22:00:52.493Z,16.55
2024-04-24T22:03:19.943Z,17.09
2024-04-24T22:05:46.840Z,17.10
2024-04-24T22:08:13.774Z,16.84
2024-04-24T22:10:41.259Z,16.75
2024-04-24T22:13:11.014Z,16.84
2024-04-24T22:15:37.872Z,16.75
2024-04-24T22:18:05.762Z,16.10
2024-04-24T22:20:32.826Z,16.01
2024-04-24T22:22:59.851Z,16.53
2024-04-24T22:25:26.635Z,16.44
2024-04-24T22:27:53.736Z,16.58
2024-04-24T22:30:20.589Z,16.59
2024-04-24T22:32:47.627Z,16.62
2024-04-24T22:35:14.615Z,16.56
2024-04-24T22:37:41.467Z,16.13
2024-04-24T22:40:08.660Z,16.44
2024-04-24T22:42:35.539Z,16.35
2024-04-24T22:45:02.707Z,15.96
2024-04-24T22:47:29.565Z,16.29
2024-04-24T22:49:56.537Z,16.19
2024-04-24T22:52:23.370Z,16.04
2024-04-24T22:54:50.167Z,16.03
2024-04-24T22:57:17.066Z,15.84
2024-04-24T22:59:43.874Z,15.89
2024-04-24T23:02:11.223Z,15.92
2024-04-24T23:04:38.134Z,15.83
2024-04-24T23:07:05.074Z,15.74
2024-04-24T23:09:31.946Z,15.43
2024-04-24T23:11:58.919Z,15.37
2024-04-24T23:14:28.553Z,15.62
2024-04-24T23:16:55.891Z,15.61
2024-04-24T23:19:22.954Z,15.49
2024-04-24T23:21:49.978Z,15.42
2024-04-24T23:24:16.934Z,15.57
2024-04-24T23:26:48.835Z,15.69
2024-04-24T23:29:16.077Z,15.76
2024-04-24T23:31:43.079Z,15.80
2024-04-24T23:34:10.028Z,15.93
2024-04-24T23:36:37.002Z,15.81
2024-04-24T23:39:03.928Z,15.65
2024-04-24T23:41:30.772Z,15.77
2024-04-24T23:43:57.644Z,15.71
2024-04-24T23:46:24.490Z,15.51
2024-04-24T23:48:52.513Z,15.62
2024-04-24T23:51:19.526Z,15.64
2024-04-24T23:53:46.327Z,15.70
2024-04-24T23:56:13.227Z,15.36
2024-04-24T23:58:40.098Z,15.67
